createdAt,value
2022-07-25T00:00:24.619Z,27.16
2022-07-25T00:02:51.179Z,27.13
2022-07-25T00:05:18.171Z,27.11
2022-07-25T00:07:44.859Z,27.19
2022-07-25T00:10:11.610Z,27.08
2022-07-25T00:12:38.093Z,26.99
2022-07-25T00:15:06.148Z,26.92
2022-07-25T00:17:32.621Z,26.80
2022-07-25T00:19:59.137Z,26.67
2022-07-25T00:22:25.806Z,26.62
2022-07-25T00:24:52.346Z,26.73
2022-07-25T00:27:18.890Z,26.75
2022-07-25T00:29:45.517Z,26.76
2022-07-25T00:32:12.112Z,26.82
2022-07-25T00:34:38.655Z,26.88
2022-07-25T00:37:05.914Z,26.83
2022-07-25T00:39:32.492Z,26.69
2022-07-25T00:42:02.251Z,26.61
2022-07-25T00:44:30.758Z,26.65
2022-07-25T00:46:57.959Z,26.64
2022-07-25T00:49:25.685Z,26.64
2022-07-25T00:51:53.881Z,26.55
2022-07-25T00:54:21.220Z,26.48
2022-07-25T00:56:48.850Z,26.41
2022-07-25T00:59:16.628Z,26.40
2022-07-25T01:01:45.476Z,26.35
2022-07-25T01:04:12.016Z,26.29
2022-07-25T01:06:38.501Z,26.26
2022-07-25T01:09:05.121Z,26.23
2022-07-25T01:11:31.613Z,26.20
2022-07-25T01:13:58.114Z,26.18
2022-07-25T01:16:24.652Z,26.15
2022-07-25T01:18:51.196Z,26.15
2022-07-25T01:21:17.752Z,26.24
2022-07-25T01:23:44.499Z,26.41
2022-07-25T01:26:11.101Z,26.45
2022-07-25T01:28:37.895Z,26.35
2022-07-25T01:31:04.741Z,26.33
2022-07-25T01:33:31.480Z,26.35
2022-07-25T01:35:58.023Z,26.38
2022-07-25T01:38:24.560Z,26.11
2022-07-25T01:40:51.219Z,26.11
2022-07-25T01:43:17.697Z,26.15
2022-07-25T01:45:44.176Z,26.10
2022-07-25T01:48:10.673Z,26.04
2022-07-25T01:50:37.279Z,26.01
2022-07-25T01:53:04.611Z,25.97
2022-07-25T01:55:31.227Z,25.96
2022-07-25T01:57:59.150Z,25.92
2022-07-25T02:00:26.437Z,25.92
2022-07-25T02:03:13.186Z,26.02
2022-07-25T02:05:39.700Z,25.99
2022-07-25T02:08:06.251Z,26.00
2022-07-25T02:10:32.969Z,26.10
2022-07-25T02:13:01.192Z,25.85
2022-07-25T02:15:27.954Z,25.64
2022-07-25T02:17:54.446Z,25.57
2022-07-25T02:20:21.023Z,25.51
2022-07-25T02:22:47.533Z,25.28
2022-07-25T02:25:13.987Z,24.98
2022-07-25T02:27:40.645Z,24.97
2022-07-25T02:30:07.901Z,25.11
2022-07-25T02:32:34.458Z,25.24
2022-07-25T02:35:00.946Z,25.19
2022-07-25T02:37:27.499Z,25.08
2022-07-25T02:39:53.975Z,25.03
2022-07-25T02:42:20.495Z,24.91
2022-07-25T02:44:46.956Z,24.95
2022-07-25T02:47:13.505Z,25.03
2022-07-25T02:49:40.003Z,25.10
2022-07-25T02:52:06.526Z,25.22
2022-07-25T02:54:32.985Z,25.19
2022-07-25T02:56:59.434Z,25.19
2022-07-25T02:59:26.071Z,25.20
2022-07-25T03:01:59.138Z,25.29
2022-07-25T03:04:25.678Z,25.31
2022-07-25T03:06:52.387Z,25.44
2022-07-25T03:09:19.475Z,25.47
2022-07-25T03:11:45.945Z,25.54
2022-07-25T03:14:12.415Z,25.46
2022-07-25T03:16:38.928Z,25.30
2022-07-25T03:19:10.189Z,25.26
2022-07-25T03:21:37.632Z,25.35
2022-07-25T03:24:04.603Z,25.31
2022-07-25T03:26:31.458Z,25.42
2022-07-25T03:28:57.944Z,25.43
2022-07-25T03:31:24.494Z,25.41
2022-07-25T03:33:51.013Z,25.22
2022-07-25T03:36:17.456Z,25.24
2022-07-25T03:38:43.990Z,25.27
2022-07-25T03:41:10.573Z,25.25
2022-07-25T03:43:37.310Z,25.20
2022-07-25T03:46:03.796Z,25.15
2022-07-25T03:48:30.661Z,25.19
2022-07-25T03:50:57.470Z,25.30
2022-07-25T03:53:23.976Z,25.38
2022-07-25T03:55:50.624Z,25.36
2022-07-25T03:58:17.075Z,25.32
2022-07-25T04:00:43.677Z,25.24
2022-07-25T04:03:10.465Z,25.14
2022-07-25T04:05:36.946Z,25.12
2022-07-25T04:08:03.588Z,25.21
2022-07-25T04:10:31.260Z,25.18
2022-07-25T04:12:57.762Z,25.05
2022-07-25T04:15:24.420Z,24.94
2022-07-25T04:17:51.326Z,25.00
2022-07-25T04:20:18.523Z,24.99
2022-07-25T04:22:47.133Z,24.88
2022-07-25T04:25:14.109Z,24.76
2022-07-25T04:27:40.606Z,24.76
2022-07-25T04:30:07.665Z,24.90
2022-07-25T04:32:34.449Z,24.82
2022-07-25T04:35:00.928Z,24.82
2022-07-25T04:37:27.395Z,24.85
2022-07-25T04:39:53.904Z,24.77
2022-07-25T04:42:20.385Z,24.77
2022-07-25T04:44:46.908Z,25.00
2022-07-25T04:47:13.434Z,25.03
2022-07-25T04:49:39.914Z,25.15
2022-07-25T04:52:06.469Z,25.15
2022-07-25T04:54:32.935Z,25.31
2022-07-25T04:57:00.087Z,25.58
2022-07-25T04:59:26.639Z,25.76
2022-07-25T05:01:53.138Z,25.85
2022-07-25T05:04:19.593Z,25.88
2022-07-25T05:06:46.073Z,25.84
2022-07-25T05:09:12.545Z,25.79
2022-07-25T05:11:42.503Z,26.02
2022-07-25T05:14:11.730Z,26.15
2022-07-25T05:16:38.329Z,26.19
2022-07-25T05:19:05.968Z,26.33
2022-07-25T05:21:32.617Z,26.28
2022-07-25T05:23:59.105Z,26.42
2022-07-25T05:26:25.588Z,26.58
2022-07-25T05:28:52.080Z,26.67
2022-07-25T05:31:18.662Z,26.71
2022-07-25T05:33:45.289Z,26.70
2022-07-25T05:36:11.790Z,26.92
2022-07-25T05:38:38.265Z,27.15
2022-07-25T05:41:04.774Z,27.19
2022-07-25T05:43:31.335Z,27.24
2022-07-25T05:46:05.604Z,27.35
2022-07-25T05:48:32.299Z,27.36
2022-07-25T05:50:59.459Z,27.37
2022-07-25T05:53:26.011Z,27.30
2022-07-25T05:55:52.562Z,27.29
2022-07-25T05:58:19.182Z,27.19
2022-07-25T06:00:45.658Z,27.31
2022-07-25T06:03:12.250Z,27.31
2022-07-25T06:05:38.864Z,27.37
2022-07-25T06:08:05.718Z,27.38
2022-07-25T06:10:32.219Z,27.41
2022-07-25T06:12:59.359Z,27.21
2022-07-25T06:15:27.047Z,27.09
2022-07-25T06:17:54.665Z,27.15
2022-07-25T06:20:21.332Z,27.18
2022-07-25T06:22:47.960Z,27.17
2022-07-25T06:25:15.136Z,27.21
2022-07-25T06:27:42.509Z,27.35
2022-07-25T06:30:19.226Z,27.36
2022-07-25T06:32:46.935Z,27.46
2022-07-25T06:35:13.440Z,27.38
2022-07-25T06:37:40.200Z,27.46
2022-07-25T06:40:07.850Z,27.67
2022-07-25T06:42:41.262Z,27.80
2022-07-25T06:45:12.183Z,27.83
2022-07-25T06:47:39.923Z,27.73
2022-07-25T06:50:08.337Z,27.75
2022-07-25T06:52:38.482Z,27.79
2022-07-25T06:55:05.803Z,27.89
2022-07-25T06:57:32.556Z,28.01
2022-07-25T06:59:59.090Z,28.17
2022-07-25T07:02:25.618Z,28.20
2022-07-25T07:04:52.369Z,28.25
2022-07-25T07:07:18.896Z,28.35
2022-07-25T07:09:45.397Z,28.25
2022-07-25T07:12:11.961Z,28.30
2022-07-25T07:14:39.315Z,28.42
2022-07-25T07:17:06.018Z,28.59
2022-07-25T07:19:32.817Z,28.66
2022-07-25T07:21:59.443Z,28.74
2022-07-25T07:24:25.959Z,28.88
2022-07-25T07:26:53.987Z,29.04
2022-07-25T07:29:20.914Z,29.03
2022-07-25T07:31:47.596Z,29.03
2022-07-25T07:34:16.652Z,28.97
2022-07-25T07:36:43.537Z,29.08
2022-07-25T07:39:10.043Z,29.31
2022-07-25T07:41:36.570Z,29.32
2022-07-25T07:44:03.151Z,29.37
2022-07-25T07:46:29.687Z,29.38
2022-07-25T07:48:56.420Z,29.41
2022-07-25T07:51:23.081Z,29.52
2022-07-25T07:54:08.017Z,29.56
2022-07-25T07:56:34.501Z,29.62
2022-07-25T07:59:01.019Z,29.80
2022-07-25T08:01:27.563Z,29.78
2022-07-25T08:03:54.148Z,29.78
2022-07-25T08:06:20.681Z,29.80
2022-07-25T08:08:47.231Z,29.82
2022-07-25T08:11:13.821Z,29.92
2022-07-25T08:13:40.889Z,30.00
2022-07-25T08:16:07.744Z,29.98
2022-07-25T08:18:34.434Z,30.15
2022-07-25T08:21:04.099Z,30.13
2022-07-25T08:23:31.905Z,30.09
2022-07-25T08:25:58.651Z,30.17
2022-07-25T08:28:25.242Z,30.21
2022-07-25T08:30:52.192Z,30.37
2022-07-25T08:33:19.153Z,30.50
2022-07-25T08:35:54.777Z,30.47
2022-07-25T08:38:23.034Z,30.47
2022-07-25T08:40:49.775Z,30.66
2022-07-25T08:43:17.637Z,30.78
2022-07-25T08:45:49.420Z,30.88
2022-07-25T08:48:24.661Z,31.02
2022-07-25T08:50:52.164Z,31.20
2022-07-25T08:53:36.144Z,31.20
2022-07-25T08:56:12.620Z,31.27
2022-07-25T08:58:40.517Z,31.37
2022-07-25T09:01:08.035Z,31.50
2022-07-25T09:03:36.226Z,31.19
2022-07-25T09:06:20.881Z,31.59
2022-07-25T09:08:55.768Z,31.57
2022-07-25T09:11:37.626Z,31.57
2022-07-25T09:14:11.137Z,31.74
2022-07-25T09:16:44.262Z,31.83
2022-07-25T09:19:16.859Z,32.02
2022-07-25T09:21:46.089Z,32.11
2022-07-25T09:24:17.871Z,31.91
2022-07-25T09:26:46.529Z,31.80
2022-07-25T09:29:27.405Z,31.87
2022-07-25T09:31:55.617Z,32.16
2022-07-25T09:34:42.502Z,32.20
2022-07-25T09:37:12.451Z,32.44
2022-07-25T09:39:49.670Z,32.54
2022-07-25T09:42:28.115Z,32.48
2022-07-25T09:44:57.712Z,32.52
2022-07-25T09:47:24.365Z,32.55
2022-07-25T09:49:52.264Z,32.83
2022-07-25T09:52:19.450Z,32.82
2022-07-25T09:54:45.936Z,32.61
2022-07-25T09:57:12.531Z,32.64
2022-07-25T09:59:39.495Z,32.71
2022-07-25T10:02:16.622Z,32.91
2022-07-25T10:04:51.954Z,32.84
2022-07-25T10:07:21.627Z,32.70
2022-07-25T10:09:50.968Z,32.90
2022-07-25T10:12:22.687Z,33.12
2022-07-25T10:15:10.556Z,33.22
2022-07-25T10:17:39.131Z,33.02
2022-07-25T10:20:10.036Z,33.04
2022-07-25T10:22:55.925Z,33.10
2022-07-25T10:25:23.543Z,33.17
2022-07-25T10:27:59.893Z,33.47
2022-07-25T10:30:38.779Z,33.31
2022-07-25T10:33:15.740Z,33.23
2022-07-25T10:35:42.511Z,33.38
2022-07-25T10:38:09.240Z,33.56
2022-07-25T10:40:42.301Z,33.82
2022-07-25T10:43:12.433Z,33.93
2022-07-25T10:45:40.724Z,33.80
2022-07-25T10:48:12.634Z,33.94
2022-07-25T10:50:56.011Z,34.16
2022-07-25T10:53:33.821Z,34.01
2022-07-25T10:56:19.877Z,33.94
2022-07-25T10:58:52.498Z,33.98
2022-07-25T11:01:26.294Z,34.22
2022-07-25T11:03:55.639Z,34.14
2022-07-25T11:06:40.395Z,33.93
2022-07-25T11:09:22.692Z,34.16
2022-07-25T11:11:55.424Z,34.23
2022-07-25T11:14:33.217Z,34.33
2022-07-25T11:17:15.283Z,34.28
2022-07-25T11:19:44.224Z,34.36
2022-07-25T11:22:10.937Z,34.35
2022-07-25T11:24:42.193Z,34.39
2022-07-25T11:27:12.553Z,34.47
2022-07-25T11:29:40.326Z,34.51
2022-07-25T11:32:09.349Z,34.61
2022-07-25T11:34:38.890Z,34.57
2022-07-25T11:37:08.431Z,34.15
2022-07-25T11:39:38.537Z,34.39
2022-07-25T11:42:08.313Z,34.61
2022-07-25T11:44:36.542Z,34.66
2022-07-25T11:47:05.652Z,34.74
2022-07-25T11:49:32.609Z,34.76
2022-07-25T11:51:59.212Z,34.77
2022-07-25T11:54:25.724Z,34.81
2022-07-25T11:56:52.311Z,34.81
2022-07-25T11:59:18.973Z,34.83
2022-07-25T12:01:45.589Z,34.64
2022-07-25T12:04:19.634Z,34.65
2022-07-25T12:06:48.636Z,34.59
2022-07-25T12:09:18.520Z,34.55
2022-07-25T12:11:46.969Z,34.64
2022-07-25T12:14:14.287Z,34.60
2022-07-25T12:16:40.983Z,34.49
2022-07-25T12:19:19.957Z,34.76
2022-07-25T12:21:46.762Z,34.91
2022-07-25T12:24:13.686Z,35.14
2022-07-25T12:26:40.287Z,35.32
2022-07-25T12:29:07.026Z,35.45
2022-07-25T12:31:33.911Z,35.45
2022-07-25T12:34:00.601Z,35.50
2022-07-25T12:36:27.128Z,35.47
2022-07-25T12:38:53.675Z,35.19
2022-07-25T12:41:22.684Z,35.11
2022-07-25T12:43:49.787Z,34.98
2022-07-25T12:46:16.749Z,35.17
2022-07-25T12:48:44.119Z,35.09
2022-07-25T12:51:10.970Z,35.08
2022-07-25T12:53:42.019Z,35.04
2022-07-25T12:56:08.951Z,34.93
2022-07-25T12:58:36.449Z,35.26
2022-07-25T13:01:03.586Z,35.18
2022-07-25T13:03:30.286Z,35.13
2022-07-25T13:05:56.797Z,35.37
2022-07-25T13:08:23.360Z,35.52
2022-07-25T13:10:49.924Z,35.50
2022-07-25T13:13:16.407Z,35.45
2022-07-25T13:15:42.920Z,35.44
2022-07-25T13:18:09.553Z,35.53
2022-07-25T13:20:37.426Z,35.37
2022-07-25T13:23:04.009Z,35.52
2022-07-25T13:25:31.285Z,35.53
2022-07-25T13:27:57.824Z,35.63
2022-07-25T13:30:24.429Z,35.72
2022-07-25T13:32:51.669Z,35.71
2022-07-25T13:35:20.682Z,35.61
2022-07-25T13:37:47.619Z,35.82
2022-07-25T13:40:14.208Z,35.68
2022-07-25T13:42:40.767Z,35.51
2022-07-25T13:45:07.828Z,35.72
2022-07-25T13:47:35.686Z,35.84
2022-07-25T13:50:02.288Z,35.80
2022-07-25T13:52:28.872Z,35.70
2022-07-25T13:54:55.353Z,35.79
2022-07-25T13:57:21.884Z,35.80
2022-07-25T13:59:48.688Z,35.76
2022-07-25T14:02:15.218Z,35.58
2022-07-25T14:04:41.792Z,35.49
2022-07-25T14:07:08.553Z,35.45
2022-07-25T14:09:35.098Z,35.60
2022-07-25T14:12:01.571Z,35.64
2022-07-25T14:14:28.049Z,35.62
2022-07-25T14:16:55.588Z,35.66
2022-07-25T14:19:23.646Z,35.73
2022-07-25T14:21:50.121Z,35.91
2022-07-25T14:24:16.647Z,35.84
2022-07-25T14:26:43.166Z,35.78
2022-07-25T14:29:11.255Z,35.65
2022-07-25T14:31:39.586Z,35.77
2022-07-25T14:34:06.714Z,35.83
2022-07-25T14:36:33.673Z,35.71
2022-07-25T14:39:01.422Z,35.67
2022-07-25T14:41:27.925Z,35.83
2022-07-25T14:43:54.442Z,35.80
2022-07-25T14:46:21.337Z,35.73
2022-07-25T14:48:48.008Z,35.79
2022-07-25T14:51:14.541Z,35.80
2022-07-25T14:53:41.183Z,35.89
2022-07-25T14:56:07.802Z,35.87
2022-07-25T14:58:34.731Z,35.83
2022-07-25T15:01:01.821Z,35.79
2022-07-25T15:03:28.412Z,35.69
2022-07-25T15:05:55.039Z,35.77
2022-07-25T15:08:21.653Z,35.84
2022-07-25T15:10:48.295Z,35.86
2022-07-25T15:13:30.618Z,35.72
2022-07-25T15:15:58.109Z,35.49
2022-07-25T15:18:24.787Z,35.56
2022-07-25T15:20:52.015Z,35.56
2022-07-25T15:23:19.734Z,35.59
2022-07-25T15:26:03.941Z,35.59
2022-07-25T15:28:35.777Z,35.64
2022-07-25T15:31:03.220Z,35.68
2022-07-25T15:33:29.932Z,35.59
2022-07-25T15:35:56.468Z,35.52
2022-07-25T15:38:23.593Z,35.45
2022-07-25T15:40:50.154Z,35.53
2022-07-25T15:43:16.729Z,35.58
2022-07-25T15:45:45.894Z,35.49
2022-07-25T15:48:14.733Z,35.46
2022-07-25T15:50:43.950Z,35.45
2022-07-25T15:53:11.343Z,35.43
2022-07-25T15:55:40.389Z,35.45
2022-07-25T15:58:07.972Z,35.54
2022-07-25T16:00:34.590Z,35.44
2022-07-25T16:03:01.211Z,35.40
2022-07-25T16:05:28.067Z,35.39
2022-07-25T16:07:54.630Z,35.38
2022-07-25T16:10:21.177Z,35.37
2022-07-25T16:12:47.672Z,35.32
2022-07-25T16:15:14.251Z,35.36
2022-07-25T16:17:41.335Z,35.27
2022-07-25T16:20:09.959Z,35.22
2022-07-25T16:22:36.604Z,35.19
2022-07-25T16:25:04.185Z,35.15
2022-07-25T16:27:31.028Z,35.14
2022-07-25T16:29:57.844Z,35.16
2022-07-25T16:32:24.598Z,35.15
2022-07-25T16:34:51.086Z,35.15
2022-07-25T16:37:17.802Z,35.11
2022-07-25T16:39:44.322Z,35.09
2022-07-25T16:42:10.788Z,35.01
2022-07-25T16:44:37.288Z,34.98
2022-07-25T16:47:03.889Z,34.94
2022-07-25T16:49:30.545Z,34.88
2022-07-25T16:51:57.041Z,34.84
2022-07-25T16:54:23.756Z,34.86
2022-07-25T16:56:54.166Z,34.83
2022-07-25T16:59:21.389Z,34.76
2022-07-25T17:01:47.906Z,34.72
2022-07-25T17:04:14.590Z,34.67
2022-07-25T17:06:42.530Z,34.62
2022-07-25T17:09:09.685Z,34.55
2022-07-25T17:11:36.394Z,34.51
2022-07-25T17:14:04.415Z,34.48
2022-07-25T17:16:32.390Z,34.45
2022-07-25T17:18:59.138Z,34.48
2022-07-25T17:21:25.615Z,34.52
2022-07-25T17:23:53.226Z,34.53
2022-07-25T17:26:20.478Z,34.48
2022-07-25T17:28:47.401Z,34.35
2022-07-25T17:31:14.805Z,34.28
2022-07-25T17:33:41.466Z,34.26
2022-07-25T17:36:08.435Z,34.21
2022-07-25T17:38:35.387Z,34.13
2022-07-25T17:41:02.266Z,34.08
2022-07-25T17:43:29.061Z,34.03
2022-07-25T17:45:56.581Z,34.00
2022-07-25T17:48:23.140Z,33.95
2022-07-25T17:50:49.641Z,33.89
2022-07-25T17:53:18.026Z,33.83
2022-07-25T17:55:45.242Z,33.81
2022-07-25T17:58:12.211Z,33.75
2022-07-25T18:00:39.100Z,33.70
2022-07-25T18:03:06.579Z,33.63
2022-07-25T18:05:33.407Z,33.51
2022-07-25T18:08:00.051Z,33.46
2022-07-25T18:10:26.580Z,33.41
2022-07-25T18:12:53.045Z,33.34
2022-07-25T18:15:19.733Z,33.33
2022-07-25T18:17:47.670Z,33.35
2022-07-25T18:20:16.171Z,33.30
2022-07-25T18:22:42.985Z,33.32
2022-07-25T18:25:12.134Z,33.33
2022-07-25T18:27:43.228Z,33.28
2022-07-25T18:30:10.720Z,33.11
2022-07-25T18:32:38.523Z,32.81
2022-07-25T18:35:07.767Z,32.58
2022-07-25T18:37:35.358Z,32.40
2022-07-25T18:40:01.845Z,32.25
2022-07-25T18:42:30.021Z,32.22
2022-07-25T18:44:57.145Z,31.86
2022-07-25T18:47:26.080Z,31.80
2022-07-25T18:49:53.753Z,31.83
2022-07-25T18:52:21.869Z,31.70
2022-07-25T18:54:48.631Z,31.44
2022-07-25T18:57:15.649Z,31.41
2022-07-25T18:59:42.327Z,31.24
2022-07-25T19:02:08.999Z,31.11
2022-07-25T19:04:35.533Z,30.96
2022-07-25T19:07:02.088Z,31.00
2022-07-25T19:09:28.661Z,30.92
2022-07-25T19:11:56.573Z,30.85
2022-07-25T19:14:26.006Z,30.72
2022-07-25T19:16:57.499Z,30.70
2022-07-25T19:19:24.340Z,30.75
2022-07-25T19:21:50.855Z,30.73
2022-07-25T19:24:17.879Z,30.55
2022-07-25T19:26:48.264Z,30.32
2022-07-25T19:29:19.074Z,30.14
2022-07-25T19:31:45.796Z,29.96
2022-07-25T19:34:12.314Z,29.64
2022-07-25T19:36:38.919Z,29.39
2022-07-25T19:39:06.217Z,29.12
2022-07-25T19:41:33.322Z,28.99
2022-07-25T19:43:59.856Z,28.92
2022-07-25T19:46:30.981Z,28.80
2022-07-25T19:48:57.848Z,28.75
2022-07-25T19:51:24.775Z,28.74
2022-07-25T19:53:51.259Z,28.76
2022-07-25T19:56:17.724Z,28.70
2022-07-25T19:58:45.104Z,28.63
2022-07-25T20:01:12.510Z,28.52
2022-07-25T20:03:39.938Z,28.54
2022-07-25T20:06:08.575Z,28.54
2022-07-25T20:08:36.746Z,28.57
2022-07-25T20:11:03.490Z,28.60
2022-07-25T20:13:30.099Z,28.46
2022-07-25T20:15:57.282Z,28.27
2022-07-25T20:18:23.887Z,28.09
2022-07-25T20:20:50.551Z,27.80
2022-07-25T20:23:17.162Z,27.61
2022-07-25T20:25:43.837Z,27.47
2022-07-25T20:28:10.768Z,27.11
2022-07-25T20:30:37.386Z,26.90
2022-07-25T20:33:08.158Z,26.58
2022-07-25T20:35:36.683Z,26.28
2022-07-25T20:38:03.324Z,26.06
2022-07-25T20:40:36.344Z,26.00
2022-07-25T20:43:04.366Z,25.81
2022-07-25T20:45:30.980Z,25.52
2022-07-25T20:47:57.598Z,25.43
2022-07-25T20:50:24.153Z,25.45
2022-07-25T20:52:50.640Z,25.67
2022-07-25T20:55:17.119Z,25.63
2022-07-25T20:57:48.622Z,25.71
2022-07-25T21:00:16.991Z,25.83
2022-07-25T21:02:43.719Z,25.95
2022-07-25T21:05:10.297Z,26.01
2022-07-25T21:07:36.773Z,26.04
2022-07-25T21:10:04.533Z,25.90
2022-07-25T21:12:32.916Z,25.88
2022-07-25T21:15:01.033Z,25.88
2022-07-25T21:17:27.612Z,26.15
2022-07-25T21:19:54.140Z,25.96
2022-07-25T21:22:20.686Z,25.88
2022-07-25T21:24:49.258Z,25.91
2022-07-25T21:27:16.762Z,26.02
2022-07-25T21:29:43.825Z,25.98
2022-07-25T21:32:13.606Z,25.74
2022-07-25T21:34:41.359Z,25.94
2022-07-25T21:37:08.078Z,26.05
2022-07-25T21:39:34.544Z,26.13
2022-07-25T21:42:01.479Z,26.24
2022-07-25T21:44:27.997Z,26.32
2022-07-25T21:46:54.463Z,26.34
2022-07-25T21:49:41.159Z,26.28
2022-07-25T21:52:08.649Z,26.31
2022-07-25T21:54:41.362Z,25.81
2022-07-25T21:57:13.279Z,25.67
2022-07-25T21:59:42.244Z,25.50
2022-07-25T22:02:08.953Z,25.60
2022-07-25T22:04:35.738Z,25.63
2022-07-25T22:07:02.297Z,25.59
2022-07-25T22:09:28.873Z,25.45
2022-07-25T22:11:56.093Z,25.58
2022-07-25T22:14:22.769Z,25.73
2022-07-25T22:16:49.308Z,25.71
2022-07-25T22:19:18.046Z,25.60
2022-07-25T22:21:47.446Z,25.48
2022-07-25T22:24:13.908Z,25.48
2022-07-25T22:26:40.551Z,25.43
2022-07-25T22:29:07.456Z,24.60
2022-07-25T22:31:34.282Z,24.24
2022-07-25T22:34:00.861Z,24.43
2022-07-25T22:36:27.318Z,24.28
2022-07-25T22:38:53.851Z,24.25
2022-07-25T22:41:20.302Z,24.35
2022-07-25T22:43:57.324Z,24.38
2022-07-25T22:46:26.712Z,24.52
2022-07-25T22:48:53.354Z,24.70
2022-07-25T22:51:20.007Z,24.87
2022-07-25T22:53:46.501Z,24.74
2022-07-25T22:56:12.987Z,24.69
2022-07-25T22:58:39.458Z,24.73
2022-07-25T23:01:06.045Z,24.79
2022-07-25T23:03:33.244Z,24.94
2022-07-25T23:06:00.234Z,24.98
2022-07-25T23:08:26.989Z,25.04
2022-07-25T23:10:53.493Z,24.95
2022-07-25T23:13:20.092Z,24.80
2022-07-25T23:15:49.960Z,24.76
2022-07-25T23:18:17.161Z,24.89
2022-07-25T23:20:43.641Z,24.91
2022-07-25T23:23:10.099Z,24.95
2022-07-25T23:25:36.549Z,24.97
2022-07-25T23:28:03.043Z,24.94
2022-07-25T23:30:29.576Z,24.90
2022-07-25T23:32:56.124Z,24.92
2022-07-25T23:35:22.655Z,24.93
2022-07-25T23:37:49.201Z,24.82
2022-07-25T23:40:15.687Z,24.81
2022-07-25T23:42:42.213Z,24.62
2022-07-25T23:45:09.413Z,24.24
2022-07-25T23:47:39.606Z,24.16
2022-07-25T23:50:08.542Z,24.29
2022-07-25T23:52:34.985Z,24.01
2022-07-25T23:55:01.575Z,23.86
2022-07-25T23:57:28.047Z,23.83
2022-07-25T23:59:54.613Z,23.61
